PWSweather.com
Personal Weather Stations
Station Observations
WISCHPK61
Green Bay Schmitt Park, Green Bay, WI 54311

Green Bay Schmitt ParkGreen Bay, WI 54311

Lat: 44.514277, Lon: -87.935067

Elevation: 735

Station Type: Acu Rite Pro Weather Center model 02032C

http://greenbayweathercam.com

High Low Average
Temperature 39.6°F4.2°C 31.6°F-0.2°C 35.8°F2.1°C
Dew Point 39.3°F4.1°C 29.3°F-1.5°C 35.0°F1.7°C
Winds 8.1 mph 13.0 kmh Calm Calm 3.0 mph SSW4.8 kmh SSW
Wind Gusts 9.2 mph14.8 kmh -- 4.0 mph6.4 kmh
Humidity 99% 86% 97%
Pressure 29.38 in994.9 mb 28.68 in971.2 mb -
Precipitation 1.83 in46.5 mm - -
Hour Temp Dew Point Humidity Winds Wind Gusts Pressure Precip Precip Rate Daily Precip Total
12:00 AM 33.3°F0.7°C 33.0°F0.6°C 99% 1.2 mph SSE1.9 kmh SSE -- 29.38 in994.9 mb - 0.00 in0.0 mm 0.00 in0.0 mm
01:00 AM 32.4°F0.2°C 32.2°F0.1°C 99% Calm Calm -- 29.38 in994.9 mb - 0.00 in0.0 mm 0.00 in0.0 mm
02:00 AM 31.6°F-0.2°C 29.3°F-1.5°C 91% 3.5 mph S5.6 kmh S 2.3 mph3.7 kmh 29.33 in993.2 mb - 0.00 in0.0 mm 0.00 in0.0 mm
03:00 AM 31.6°F-0.2°C 31.4°F-0.3°C 99% 4.6 mph SE7.4 kmh SE 5.8 mph9.3 kmh 29.28 in991.5 mb - 0.00 in0.0 mm 0.00 in0.0 mm
04:00 AM 31.8°F-0.1°C 31.6°F-0.2°C 99% 5.8 mph S9.3 kmh S 8.1 mph13.0 kmh 29.23 in989.8 mb - 0.01 in0.3 mm 0.01 in0.3 mm
05:00 AM 32.2°F0.1°C 32.0°F0.0°C 99% 5.8 mph SE9.3 kmh SE 9.2 mph14.8 kmh 29.18 in988.1 mb - 0.00 in0.0 mm 0.01 in0.3 mm
06:00 AM 32.7°F0.4°C 32.5°F0.3°C 99% 8.1 mph SE13.0 kmh SE 9.2 mph14.8 kmh 29.12 in986.1 mb - 0.16 in4.1 mm 0.17 in4.3 mm
07:00 AM 33.3°F0.7°C 33.0°F0.6°C 99% 6.9 mph S11.1 kmh S 9.2 mph14.8 kmh 29.05 in983.7 mb - 0.36 in9.1 mm 0.53 in13.5 mm
08:00 AM 33.8°F1.0°C 31.7°F-0.2°C 92% 6.9 mph SSE11.1 kmh SSE 6.9 mph11.1 kmh 29.01 in982.4 mb - 0.32 in8.1 mm 0.85 in21.6 mm
09:00 AM 34.7°F1.5°C 34.4°F1.3°C 99% 5.8 mph S9.3 kmh S 5.8 mph9.3 kmh 28.96 in980.7 mb - 0.32 in8.1 mm 1.17 in29.7 mm
10:00 AM 35.6°F2.0°C 35.3°F1.8°C 99% 8.1 mph SE13.0 kmh SE 6.9 mph11.1 kmh 28.93 in979.7 mb - 0.20 in5.1 mm 1.37 in34.8 mm
11:00 AM 36.5°F2.5°C 36.2°F2.3°C 99% 4.6 mph S7.4 kmh S 5.8 mph9.3 kmh 28.90 in978.7 mb - 0.20 in5.1 mm 1.57 in39.9 mm
12:00 PM 36.9°F2.7°C 36.6°F2.6°C 99% 4.6 mph SE7.4 kmh SE 9.2 mph14.8 kmh 28.83 in976.3 mb - 0.06 in1.5 mm 1.63 in41.4 mm
01:00 PM 37.2°F2.9°C 36.9°F2.7°C 99% 3.5 mph SSE5.6 kmh SSE 4.6 mph7.4 kmh 28.76 in973.9 mb - 0.04 in1.0 mm 1.67 in42.4 mm
02:00 PM 37.0°F2.8°C 36.7°F2.6°C 99% 1.2 mph SSE1.9 kmh SSE 3.5 mph5.6 kmh 28.72 in972.6 mb - 0.10 in2.5 mm 1.77 in45.0 mm
03:00 PM 37.8°F3.2°C 37.5°F3.1°C 99% Calm Calm -- 28.70 in971.9 mb - 0.04 in1.0 mm 1.81 in46.0 mm
04:00 PM 38.5°F3.6°C 38.0°F3.3°C 98% Calm Calm -- 28.68 in971.2 mb - 0.02 in0.5 mm 1.83 in46.5 mm
05:00 PM 38.8°F3.8°C 38.5°F3.6°C 99% 1.2 mph WNW1.9 kmh WNW 2.3 mph3.7 kmh 28.70 in971.9 mb - 0.00 in0.0 mm 1.83 in46.5 mm
06:00 PM 39.6°F4.2°C 39.3°F4.1°C 99% 1.2 mph NW1.9 kmh NW -- 28.74 in973.2 mb - 0.00 in0.0 mm 1.83 in46.5 mm
07:00 PM 39.2°F4.0°C 38.4°F3.6°C 97% 1.2 mph NW1.9 kmh NW 1.2 mph1.9 kmh 28.78 in974.6 mb - 0.00 in0.0 mm 1.83 in46.5 mm
08:00 PM 38.5°F3.6°C 38.2°F3.4°C 99% Calm Calm 1.2 mph1.9 kmh 28.83 in976.3 mb - 0.00 in0.0 mm 1.83 in46.5 mm
09:00 PM 38.1°F3.4°C 37.8°F3.2°C 99% Calm Calm -- 28.89 in978.3 mb - 0.00 in0.0 mm 1.83 in46.5 mm
10:00 PM 37.8°F3.2°C 35.7°F2.1°C 92% 1.2 mph WSW1.9 kmh WSW 2.3 mph3.7 kmh 28.94 in980.0 mb - 0.00 in0.0 mm 1.83 in46.5 mm
11:00 PM 37.2°F2.9°C 34.8°F1.6°C 91% 2.3 mph WNW3.7 kmh WNW 3.5 mph5.6 kmh 28.95 in980.4 mb - 0.00 in0.0 mm 1.83 in46.5 mm